Terminal Aerodrome Forecast
Issued by NWS La Crosse, WI

Home | Current Version | Previous Version | Text Only | Print | Product List | Glossary On
Versions: 1 2 3 4 5 6 7 8 9 10 11 12 13 14 15 16
000
FTUS43 KARX 201120
TAFLSE
TAF
KLSE 201120Z 2012/2112 17008KT P6SM VCSH BKN070
      TEMPO 2012/2015 5SM -SHRA BKN050
     FM202000 18006KT P6SM -SHRA BKN050
     FM210000 15004KT P6SM -SHRA BKN050
      TEMPO 2108/2112 5SM -SHRA BR BKN035=

USA.gov is the U.S. government's official web portal to all federal, state and local government web resources and services.